createdAt,value
2018-09-07T00:00:56.054Z,57.20
2018-09-07T00:02:48.946Z,57.30
2018-09-07T00:03:48.936Z,57.20
2018-09-07T00:05:41.801Z,57.59
2018-09-07T00:06:41.780Z,57.30
2018-09-07T00:08:34.662Z,57.20
2018-09-07T00:09:34.646Z,57.98
2018-09-07T00:11:27.539Z,57.59
2018-09-07T00:12:27.516Z,57.88
2018-09-07T00:14:20.393Z,57.20
2018-09-07T00:15:20.381Z,57.20
2018-09-07T00:17:13.275Z,57.98
2018-09-07T00:18:13.262Z,57.59
2018-09-07T00:20:06.141Z,57.98
2018-09-07T00:21:06.118Z,57.98
2018-09-07T00:22:58.995Z,57.98
2018-09-07T00:23:58.985Z,57.98
2018-09-07T00:25:52.381Z,57.98
2018-09-07T00:26:52.356Z,57.98
2018-09-07T00:28:45.226Z,57.88
2018-09-07T00:29:45.217Z,57.79
2018-09-07T00:31:38.633Z,57.79
2018-09-07T00:32:38.583Z,57.79
2018-09-07T00:34:31.462Z,57.88
2018-09-07T00:35:31.448Z,57.79
2018-09-07T00:37:24.332Z,57.88
2018-09-07T00:38:24.310Z,57.79
2018-09-07T00:40:17.198Z,57.79
2018-09-07T00:41:17.174Z,57.79
2018-09-07T00:43:10.056Z,57.69
2018-09-07T00:44:10.035Z,57.69
2018-09-07T00:46:02.928Z,57.69
2018-09-07T00:47:02.897Z,57.79
2018-09-07T00:48:55.773Z,57.88
2018-09-07T00:49:55.760Z,57.69
2018-09-07T00:51:48.647Z,57.40
2018-09-07T00:52:48.621Z,57.37
2018-09-07T00:54:41.499Z,57.40
2018-09-07T00:55:41.490Z,57.69
2018-09-07T00:57:34.379Z,57.56
2018-09-07T00:58:34.350Z,57.59
2018-09-07T01:00:27.242Z,57.66
2018-09-07T01:01:27.219Z,57.37
2018-09-07T01:03:20.102Z,57.46
2018-09-07T01:04:20.086Z,57.56
2018-09-07T01:06:12.973Z,57.50
2018-09-07T01:07:12.955Z,57.46
2018-09-07T01:09:05.823Z,57.40
2018-09-07T01:10:05.816Z,57.37
2018-09-07T01:11:58.706Z,57.50
2018-09-07T01:12:58.681Z,57.50
2018-09-07T01:14:52.545Z,57.50
2018-09-07T01:15:52.533Z,57.56
2018-09-07T01:17:45.418Z,57.46
2018-09-07T01:18:45.398Z,57.40
2018-09-07T01:20:38.290Z,57.46
2018-09-07T01:21:38.265Z,57.37
2018-09-07T01:23:31.142Z,57.40
2018-09-07T01:24:31.128Z,57.37
2018-09-07T01:26:24.517Z,57.88
2018-09-07T01:27:24.494Z,57.56
2018-09-07T01:29:17.377Z,57.46
2018-09-07T01:30:17.361Z,57.66
2018-09-07T01:32:10.241Z,57.66
2018-09-07T01:33:10.222Z,57.56
2018-09-07T01:35:03.098Z,57.66
2018-09-07T01:36:03.087Z,57.76
2018-09-07T01:37:55.979Z,57.86
2018-09-07T01:38:55.957Z,58.04
2018-09-07T01:40:48.846Z,57.66
2018-09-07T01:41:48.825Z,57.46
2018-09-07T01:43:42.196Z,57.66
2018-09-07T01:44:42.185Z,58.04
2018-09-07T01:46:35.072Z,58.04
2018-09-07T01:47:35.053Z,57.76
2018-09-07T01:49:28.911Z,57.95
2018-09-07T01:50:28.909Z,58.04
2018-09-07T01:52:21.790Z,58.04
2018-09-07T01:53:21.756Z,58.04
2018-09-07T01:55:14.640Z,57.66
2018-09-07T01:56:14.627Z,58.04
2018-09-07T01:58:07.515Z,57.66
2018-09-07T01:59:07.495Z,57.95
2018-09-07T02:01:00.382Z,57.66
2018-09-07T02:02:00.358Z,57.66
2018-09-07T02:03:53.234Z,57.66
2018-09-07T02:04:53.219Z,57.86
2018-09-07T02:06:46.103Z,58.04
2018-09-07T02:07:46.082Z,58.04
2018-09-07T02:09:38.957Z,57.56
2018-09-07T02:10:38.949Z,57.76
2018-09-07T02:12:31.839Z,57.95
2018-09-07T02:13:31.811Z,57.95
2018-09-07T02:15:24.687Z,57.86
2018-09-07T02:16:24.676Z,58.14
2018-09-07T02:18:17.558Z,57.86
2018-09-07T02:19:17.537Z,57.86
2018-09-07T02:21:10.426Z,57.95
2018-09-07T02:22:10.417Z,58.04
2018-09-07T02:24:04.266Z,57.66
2018-09-07T02:25:04.255Z,57.95
2018-09-07T02:26:57.140Z,57.66
2018-09-07T02:27:57.126Z,57.76
2018-09-07T02:29:50.000Z,58.04
2018-09-07T02:30:49.993Z,57.66
2018-09-07T02:32:43.862Z,58.14
2018-09-07T02:33:43.845Z,57.86
2018-09-07T02:35:36.724Z,58.04
2018-09-07T02:36:36.713Z,57.95
2018-09-07T02:38:29.595Z,58.24
2018-09-07T02:39:29.575Z,58.34
2018-09-07T02:41:22.471Z,57.95
2018-09-07T02:42:22.448Z,57.95
2018-09-07T02:44:15.323Z,57.86
2018-09-07T02:45:15.311Z,57.86
2018-09-07T02:47:08.197Z,57.76
2018-09-07T02:48:08.171Z,57.86
2018-09-07T02:50:01.049Z,57.86
2018-09-07T02:51:01.037Z,57.76
2018-09-07T02:52:53.925Z,57.86
2018-09-07T02:53:53.904Z,57.95
2018-09-07T02:55:46.774Z,57.95
2018-09-07T02:56:46.763Z,57.76
2018-09-07T02:58:39.647Z,57.95
2018-09-07T02:59:39.636Z,57.86
2018-09-07T03:01:32.507Z,57.95
2018-09-07T03:02:32.492Z,58.04
2018-09-07T03:04:25.362Z,57.95
2018-09-07T03:05:25.354Z,57.86
2018-09-07T03:07:18.238Z,57.95
2018-09-07T03:08:18.217Z,58.04
2018-09-07T03:10:11.095Z,57.95
2018-09-07T03:11:11.084Z,57.86
2018-09-07T03:13:03.967Z,58.04
2018-09-07T03:14:03.945Z,57.86
2018-09-07T03:15:56.821Z,57.95
2018-09-07T03:16:56.852Z,58.14
2018-09-07T03:18:49.704Z,58.04
2018-09-07T03:19:49.681Z,57.95
2018-09-07T03:21:42.568Z,58.04
2018-09-07T03:22:42.553Z,57.95
2018-09-07T03:24:35.923Z,57.95
2018-09-07T03:25:35.906Z,57.95
2018-09-07T03:27:28.799Z,57.95
2018-09-07T03:28:28.780Z,57.95
2018-09-07T03:30:21.661Z,58.04
2018-09-07T03:31:21.649Z,57.95
2018-09-07T03:33:14.525Z,57.95
2018-09-07T03:34:14.503Z,57.76
2018-09-07T03:36:07.376Z,57.95
2018-09-07T03:37:07.373Z,57.86
2018-09-07T03:39:00.252Z,58.24
2018-09-07T03:40:00.231Z,57.95
2018-09-07T03:41:53.118Z,58.24
2018-09-07T03:42:53.098Z,58.34
2018-09-07T03:44:45.974Z,58.34
2018-09-07T03:45:45.961Z,58.34
2018-09-07T03:47:38.849Z,58.44
2018-09-07T03:48:38.822Z,58.44
2018-09-07T03:50:31.699Z,58.44
2018-09-07T03:51:31.685Z,58.44
2018-09-07T03:53:25.576Z,58.44
2018-09-07T03:54:25.548Z,58.44
2018-09-07T03:56:18.433Z,58.44
2018-09-07T03:57:18.411Z,58.44
2018-09-07T03:59:11.305Z,58.44
2018-09-07T04:00:11.277Z,58.24
2018-09-07T04:02:04.176Z,58.34
2018-09-07T04:03:04.162Z,58.44
2018-09-07T04:04:57.020Z,58.24
2018-09-07T04:05:57.009Z,58.44
2018-09-07T04:07:49.897Z,58.24
2018-09-07T04:08:49.872Z,58.44
2018-09-07T04:10:42.748Z,58.44
2018-09-07T04:11:42.734Z,58.34
2018-09-07T04:13:35.621Z,58.24
2018-09-07T04:14:35.600Z,58.44
2018-09-07T04:16:28.477Z,58.44
2018-09-07T04:17:28.464Z,58.14
2018-09-07T04:19:21.357Z,58.14
2018-09-07T04:20:21.326Z,58.34
2018-09-07T04:22:14.227Z,58.21
2018-09-07T04:23:14.201Z,58.24
2018-09-07T04:25:08.065Z,58.24
2018-09-07T04:26:08.049Z,58.02
2018-09-07T04:28:00.933Z,58.53
2018-09-07T04:29:00.911Z,58.34
2018-09-07T04:30:53.785Z,58.34
2018-09-07T04:31:53.777Z,58.53
2018-09-07T04:33:46.662Z,58.70
2018-09-07T04:34:46.639Z,58.92
2018-09-07T04:36:39.509Z,58.31
2018-09-07T04:37:39.503Z,58.82
2018-09-07T04:39:32.392Z,58.80
2018-09-07T04:40:32.373Z,58.82
2018-09-07T04:42:25.266Z,58.53
2018-09-07T04:43:25.244Z,58.53
2018-09-07T04:45:18.108Z,58.53
2018-09-07T04:46:18.097Z,58.60
2018-09-07T04:48:11.000Z,58.50
2018-09-07T04:49:10.964Z,58.60
2018-09-07T04:51:03.833Z,58.63
2018-09-07T04:52:03.823Z,58.60
2018-09-07T04:53:56.703Z,58.50
2018-09-07T04:54:56.682Z,58.50
2018-09-07T04:56:49.555Z,58.40
2018-09-07T04:57:49.543Z,58.50
2018-09-07T04:59:43.419Z,58.53
2018-09-07T05:00:43.400Z,58.31
2018-09-07T05:02:36.286Z,58.31
2018-09-07T05:03:36.264Z,58.50
2018-09-07T05:05:29.152Z,58.80
2018-09-07T05:06:29.139Z,58.60
2018-09-07T05:08:22.026Z,58.60
2018-09-07T05:09:22.002Z,58.89
2018-09-07T05:11:14.879Z,58.80
2018-09-07T05:12:14.868Z,58.70
2018-09-07T05:14:07.760Z,58.60
2018-09-07T05:15:07.738Z,58.60
2018-09-07T05:17:00.609Z,58.89
2018-09-07T05:18:00.599Z,58.89
2018-09-07T05:19:53.477Z,59.38
2018-09-07T05:20:53.467Z,59.08
2018-09-07T05:22:46.348Z,59.18
2018-09-07T05:23:46.328Z,59.18
2018-09-07T05:25:39.203Z,59.28
2018-09-07T05:26:39.195Z,59.28
2018-09-07T05:28:33.068Z,58.98
2018-09-07T05:29:33.047Z,59.28
2018-09-07T05:31:26.489Z,58.98
2018-09-07T05:32:26.413Z,58.89
2018-09-07T05:34:19.302Z,58.98
2018-09-07T05:35:19.282Z,59.18
2018-09-07T05:37:12.159Z,58.89
2018-09-07T05:38:12.144Z,58.89
2018-09-07T05:40:05.033Z,59.28
2018-09-07T05:41:05.010Z,59.18
2018-09-07T05:42:57.898Z,59.18
2018-09-07T05:43:57.874Z,59.28
2018-09-07T05:45:51.252Z,59.38
2018-09-07T05:46:51.245Z,59.08
2018-09-07T05:48:44.133Z,59.28
2018-09-07T05:49:44.169Z,59.28
2018-09-07T05:51:36.987Z,59.08
2018-09-07T05:52:36.977Z,59.18
2018-09-07T05:54:29.861Z,59.08
2018-09-07T05:55:29.841Z,59.08
2018-09-07T05:57:22.716Z,59.08
2018-09-07T05:58:22.706Z,59.21
2018-09-07T06:00:15.589Z,59.28
2018-09-07T06:01:15.568Z,59.18
2018-09-07T06:03:09.436Z,59.01
2018-09-07T06:04:09.418Z,58.89
2018-09-07T06:06:02.289Z,58.92
2018-09-07T06:07:02.289Z,58.60
2018-09-07T06:08:55.169Z,58.92
2018-09-07T06:09:55.147Z,58.82
2018-09-07T06:11:49.524Z,58.63
2018-09-07T06:12:49.500Z,58.63
2018-09-07T06:14:42.384Z,58.53
2018-09-07T06:15:42.362Z,58.44
2018-09-07T06:17:35.235Z,58.53
2018-09-07T06:18:35.225Z,58.44
2018-09-07T06:20:28.109Z,58.53
2018-09-07T06:21:28.092Z,58.53
2018-09-07T06:23:21.987Z,58.63
2018-09-07T06:24:21.949Z,58.63
2018-09-07T06:26:14.816Z,58.82
2018-09-07T06:27:14.810Z,58.53
2018-09-07T06:29:07.693Z,58.63
2018-09-07T06:30:07.676Z,58.82
2018-09-07T06:32:01.534Z,58.44
2018-09-07T06:33:01.579Z,58.72
2018-09-07T06:34:54.411Z,58.82
2018-09-07T06:35:54.395Z,58.72
2018-09-07T06:37:47.273Z,58.72
2018-09-07T06:38:47.351Z,58.82
2018-09-07T06:40:40.145Z,58.72
2018-09-07T06:41:40.121Z,58.63
2018-09-07T06:43:33.005Z,58.82
2018-09-07T06:44:32.992Z,58.82
2018-09-07T06:46:25.858Z,58.53
2018-09-07T06:47:25.847Z,58.82
2018-09-07T06:49:18.741Z,58.82
2018-09-07T06:50:18.721Z,58.72
2018-09-07T06:52:11.663Z,58.82
2018-09-07T06:53:11.589Z,58.53
2018-09-07T06:55:04.472Z,58.72
2018-09-07T06:56:04.450Z,58.82
2018-09-07T06:57:57.325Z,58.82
2018-09-07T06:58:57.315Z,58.92
2018-09-07T07:00:50.199Z,58.82
2018-09-07T07:01:50.178Z,58.34
2018-09-07T07:03:43.064Z,58.14
2018-09-07T07:04:43.043Z,58.04
2018-09-07T07:06:35.919Z,58.34
2018-09-07T07:07:35.905Z,58.14
2018-09-07T07:09:28.792Z,58.44
2018-09-07T07:10:28.768Z,58.34
2018-09-07T07:12:21.646Z,57.86
2018-09-07T07:13:21.631Z,57.76
2018-09-07T07:15:14.523Z,57.95
2018-09-07T07:16:14.499Z,57.76
2018-09-07T07:18:07.372Z,58.44
2018-09-07T07:19:07.364Z,58.14
2018-09-07T07:21:00.258Z,58.34
2018-09-07T07:22:00.227Z,58.34
2018-09-07T07:23:53.118Z,58.44
2018-09-07T07:24:53.102Z,58.34
2018-09-07T07:26:45.969Z,58.34
2018-09-07T07:27:45.966Z,58.14
2018-09-07T07:29:38.860Z,57.86
2018-09-07T07:30:38.834Z,58.14
2018-09-07T07:32:31.711Z,57.76
2018-09-07T07:33:31.692Z,57.95
2018-09-07T07:35:24.582Z,57.86
2018-09-07T07:36:24.563Z,58.04
2018-09-07T07:38:17.435Z,57.76
2018-09-07T07:39:17.425Z,57.76
2018-09-07T07:41:10.306Z,57.95
2018-09-07T07:42:10.287Z,58.14
2018-09-07T07:44:03.181Z,58.04
2018-09-07T07:45:03.162Z,58.24
2018-09-07T07:46:56.034Z,58.24
2018-09-07T07:47:56.067Z,58.24
2018-09-07T07:49:48.942Z,58.34
2018-09-07T07:50:48.893Z,57.86
2018-09-07T07:52:41.773Z,57.95
2018-09-07T07:53:41.760Z,58.24
2018-09-07T07:55:34.647Z,58.04
2018-09-07T07:56:34.624Z,58.24
2018-09-07T07:58:27.504Z,57.95
2018-09-07T07:59:27.488Z,57.76
2018-09-07T08:01:20.369Z,57.66
2018-09-07T08:02:20.352Z,57.86
2018-09-07T08:04:13.237Z,58.44
2018-09-07T08:05:13.216Z,58.44
2018-09-07T08:07:06.091Z,58.53
2018-09-07T08:08:06.079Z,58.53
2018-09-07T08:09:58.966Z,58.44
2018-09-07T08:10:58.945Z,58.44
2018-09-07T08:12:51.819Z,58.53
2018-09-07T08:13:51.805Z,58.44
2018-09-07T08:15:44.695Z,58.24
2018-09-07T08:16:44.684Z,58.24
2018-09-07T08:18:37.549Z,57.95
2018-09-07T08:19:37.539Z,57.95
2018-09-07T08:21:30.932Z,58.24
2018-09-07T08:22:30.908Z,57.95
2018-09-07T08:24:23.790Z,57.95
2018-09-07T08:25:23.770Z,57.86
2018-09-07T08:27:16.641Z,57.95
2018-09-07T08:28:16.635Z,57.95
2018-09-07T08:30:09.521Z,58.07
2018-09-07T08:31:09.498Z,58.07
2018-09-07T08:33:02.540Z,57.69
2018-09-07T08:34:02.364Z,57.98
2018-09-07T08:35:55.255Z,57.98
2018-09-07T08:36:55.244Z,57.59
2018-09-07T08:38:48.112Z,57.40
2018-09-07T08:39:48.103Z,57.88
2018-09-07T08:41:40.991Z,57.04
2018-09-07T08:42:40.969Z,57.40
2018-09-07T08:44:33.856Z,56.94
2018-09-07T08:45:33.833Z,57.04
2018-09-07T08:47:27.722Z,56.56
2018-09-07T08:48:27.709Z,56.46
2018-09-07T08:50:20.598Z,56.46
2018-09-07T08:51:20.577Z,56.46
2018-09-07T08:53:13.459Z,56.59
2018-09-07T08:54:13.470Z,56.56
2018-09-07T08:56:06.325Z,56.39
2018-09-07T08:57:06.306Z,56.16
2018-09-07T08:58:59.181Z,56.16
2018-09-07T08:59:59.171Z,56.75
2018-09-07T09:01:53.052Z,56.75
2018-09-07T09:02:53.023Z,56.56
2018-09-07T09:04:45.909Z,56.65
2018-09-07T09:05:45.890Z,56.56
2018-09-07T09:07:38.768Z,56.20
2018-09-07T09:08:38.751Z,56.39
2018-09-07T09:10:31.644Z,56.29
2018-09-07T09:11:31.622Z,55.90
2018-09-07T09:13:24.493Z,55.81
2018-09-07T09:14:24.481Z,56.10
2018-09-07T09:16:17.366Z,55.42
2018-09-07T09:17:17.349Z,55.54
2018-09-07T09:19:10.226Z,54.77
2018-09-07T09:20:10.222Z,54.96
2018-09-07T09:22:03.112Z,54.99
2018-09-07T09:23:03.083Z,54.90
2018-09-07T09:24:55.979Z,54.41
2018-09-07T09:25:55.957Z,54.50
2018-09-07T09:27:49.339Z,54.31
2018-09-07T09:28:49.323Z,54.34
2018-09-07T09:30:42.213Z,54.34
2018-09-07T09:31:42.192Z,54.44
2018-09-07T09:33:35.069Z,54.14
2018-09-07T09:34:35.062Z,54.31
2018-09-07T09:36:27.945Z,54.11
2018-09-07T09:37:27.921Z,54.14
2018-09-07T09:39:20.807Z,54.34
2018-09-07T09:40:20.802Z,54.14
2018-09-07T09:42:13.698Z,54.14
2018-09-07T09:43:13.692Z,54.34
2018-09-07T09:45:06.569Z,54.05
2018-09-07T09:46:06.546Z,54.05
2018-09-07T09:48:00.413Z,54.21
2018-09-07T09:49:00.407Z,54.21
2018-09-07T09:50:53.303Z,54.31
2018-09-07T09:51:53.287Z,54.50
2018-09-07T09:53:46.160Z,54.77
2018-09-07T09:54:46.150Z,55.06
2018-09-07T09:56:39.034Z,55.16
2018-09-07T09:57:39.014Z,55.06
2018-09-07T09:59:31.898Z,55.35
2018-09-07T10:00:31.887Z,55.74
2018-09-07T10:02:24.810Z,55.62
2018-09-07T10:03:24.747Z,55.42
2018-09-07T10:05:17.634Z,55.62
2018-09-07T10:06:17.614Z,56.20
2018-09-07T10:08:10.491Z,55.90
2018-09-07T10:09:10.481Z,55.90
2018-09-07T10:11:03.393Z,55.81
2018-09-07T10:12:03.364Z,55.81
2018-09-07T10:13:56.223Z,55.81
2018-09-07T10:14:56.214Z,55.71
2018-09-07T10:16:49.099Z,55.81
2018-09-07T10:17:49.077Z,55.71
2018-09-07T10:19:41.964Z,55.78
2018-09-07T10:20:41.951Z,55.62
2018-09-07T10:22:34.833Z,55.58
2018-09-07T10:23:34.814Z,55.71
2018-09-07T10:25:28.241Z,55.68
2018-09-07T10:26:28.186Z,55.68
2018-09-07T10:28:21.054Z,55.68
2018-09-07T10:29:21.043Z,55.98
2018-09-07T10:31:13.931Z,55.98
2018-09-07T10:32:13.908Z,55.88
2018-09-07T10:34:06.787Z,55.68
2018-09-07T10:35:06.776Z,55.58
2018-09-07T10:37:00.655Z,55.68
2018-09-07T10:38:00.636Z,55.58
2018-09-07T10:39:53.510Z,55.58
2018-09-07T10:40:53.498Z,55.62
2018-09-07T10:42:46.386Z,55.68
2018-09-07T10:43:46.364Z,55.68
2018-09-07T10:45:39.240Z,55.68
2018-09-07T10:46:39.231Z,55.68
2018-09-07T10:48:32.112Z,55.78
2018-09-07T10:49:32.096Z,55.58
2018-09-07T10:51:24.976Z,55.58
2018-09-07T10:52:24.956Z,55.58
2018-09-07T10:54:17.833Z,55.62
2018-09-07T10:55:17.820Z,55.81
2018-09-07T10:57:10.710Z,55.71
2018-09-07T10:58:10.687Z,55.42
2018-09-07T11:00:03.566Z,55.71
2018-09-07T11:01:03.554Z,55.42
2018-09-07T11:02:56.443Z,54.96
2018-09-07T11:03:56.420Z,55.06
2018-09-07T11:05:49.302Z,54.67
2018-09-07T11:06:49.285Z,54.67
2018-09-07T11:08:42.185Z,54.67
2018-09-07T11:09:42.150Z,54.38
2018-09-07T11:11:35.033Z,54.48
2018-09-07T11:12:35.015Z,54.41
2018-09-07T11:14:27.901Z,54.50
2018-09-07T11:15:27.899Z,54.11
2018-09-07T11:17:20.781Z,54.21
2018-09-07T11:18:20.761Z,54.28
2018-09-07T11:20:13.641Z,54.28
2018-09-07T11:21:13.635Z,54.38
2018-09-07T11:23:07.512Z,54.77
2018-09-07T11:24:07.486Z,54.48
2018-09-07T11:26:00.388Z,54.86
2018-09-07T11:27:00.361Z,55.16
2018-09-07T11:28:54.221Z,55.16
2018-09-07T11:29:54.219Z,55.16
2018-09-07T11:31:47.103Z,54.58
2018-09-07T11:32:47.080Z,54.48
2018-09-07T11:34:39.961Z,54.58
2018-09-07T11:35:40.030Z,54.67
2018-09-07T11:37:32.838Z,55.16
2018-09-07T11:38:32.830Z,54.86
2018-09-07T11:40:25.778Z,54.86
2018-09-07T11:41:25.687Z,55.16
2018-09-07T11:43:18.568Z,54.77
2018-09-07T11:44:18.553Z,54.28
2018-09-07T11:46:11.432Z,54.38
2018-09-07T11:47:11.429Z,54.50
2018-09-07T11:49:04.348Z,54.02
2018-09-07T11:50:04.288Z,54.02
2018-09-07T11:51:57.176Z,54.31
2018-09-07T11:52:57.151Z,54.21
2018-09-07T11:54:50.083Z,53.92
2018-09-07T11:55:50.028Z,53.92
2018-09-07T11:57:42.911Z,53.85
2018-09-07T11:58:42.899Z,53.92
2018-09-07T12:00:35.769Z,53.66
2018-09-07T12:01:35.762Z,54.05
2018-09-07T12:03:28.647Z,54.24
2018-09-07T12:04:28.758Z,53.56
2018-09-07T12:06:21.509Z,54.05
2018-09-07T12:07:21.496Z,53.85
2018-09-07T12:09:14.386Z,53.75
2018-09-07T12:10:14.364Z,53.92
2018-09-07T12:12:07.295Z,53.83
2018-09-07T12:13:07.377Z,54.11
2018-09-07T12:15:00.126Z,53.83
2018-09-07T12:16:00.112Z,53.63
2018-09-07T12:17:53.031Z,53.92
2018-09-07T12:18:53.009Z,53.73
2018-09-07T12:20:45.860Z,53.85
2018-09-07T12:21:45.851Z,53.95
2018-09-07T12:23:38.778Z,54.24
2018-09-07T12:24:38.715Z,54.14
2018-09-07T12:26:31.603Z,54.24
2018-09-07T12:27:31.592Z,53.56
2018-09-07T12:29:25.472Z,53.56
2018-09-07T12:30:25.452Z,53.66
2018-09-07T12:32:18.348Z,53.47
2018-09-07T12:33:18.326Z,53.37
2018-09-07T12:35:11.220Z,53.17
2018-09-07T12:36:11.200Z,53.27
2018-09-07T12:38:04.085Z,53.17
2018-09-07T12:39:04.066Z,53.17
2018-09-07T12:40:56.949Z,53.27
2018-09-07T12:41:56.997Z,52.98
2018-09-07T12:43:49.815Z,53.08
2018-09-07T12:44:49.801Z,53.17
2018-09-07T12:46:42.712Z,53.27
2018-09-07T12:47:42.666Z,53.47
2018-09-07T12:49:35.542Z,54.02
2018-09-07T12:50:35.536Z,53.83
2018-09-07T12:52:29.406Z,53.73
2018-09-07T12:53:29.391Z,54.11
2018-09-07T12:55:22.270Z,53.83
2018-09-07T12:56:22.264Z,53.83
2018-09-07T12:58:15.143Z,53.92
2018-09-07T12:59:15.122Z,53.83
2018-09-07T13:01:08.001Z,53.83
2018-09-07T13:02:07.991Z,53.73
2018-09-07T13:04:00.877Z,53.73
2018-09-07T13:05:00.858Z,54.11
2018-09-07T13:06:54.741Z,53.83
2018-09-07T13:07:54.722Z,53.83
2018-09-07T13:09:47.594Z,53.83
2018-09-07T13:10:47.586Z,54.11
2018-09-07T13:12:40.473Z,54.21
2018-09-07T13:13:40.453Z,54.38
2018-09-07T13:15:33.336Z,54.09
2018-09-07T13:16:33.322Z,54.09
2018-09-07T13:18:26.212Z,54.28
2018-09-07T13:19:26.184Z,54.38
2018-09-07T13:21:19.072Z,54.38
2018-09-07T13:22:19.054Z,54.58
2018-09-07T13:24:11.942Z,54.28
2018-09-07T13:25:11.926Z,54.38
2018-09-07T13:27:04.809Z,54.67
2018-09-07T13:28:04.847Z,54.77
2018-09-07T13:29:57.668Z,54.58
2018-09-07T13:30:57.660Z,54.48
2018-09-07T13:32:50.547Z,54.58
2018-09-07T13:33:50.522Z,54.35
2018-09-07T13:35:43.423Z,54.48
2018-09-07T13:36:43.385Z,54.58
2018-09-07T13:38:36.275Z,54.67
2018-09-07T13:39:36.257Z,55.26
2018-09-07T13:41:29.136Z,54.48
2018-09-07T13:42:29.125Z,54.67
2018-09-07T13:44:22.046Z,54.77
2018-09-07T13:45:22.029Z,54.77
2018-09-07T13:47:14.917Z,54.77
2018-09-07T13:48:14.949Z,54.77
2018-09-07T13:50:07.769Z,54.77
2018-09-07T13:51:07.762Z,54.86
2018-09-07T13:53:00.650Z,54.86
2018-09-07T13:54:00.632Z,54.77
2018-09-07T13:55:53.510Z,54.48
2018-09-07T13:56:53.500Z,54.48
2018-09-07T13:58:46.397Z,55.26
2018-09-07T13:59:46.370Z,54.48
2018-09-07T14:01:39.343Z,54.58
2018-09-07T14:02:39.245Z,54.67
2018-09-07T14:04:32.132Z,55.16
2018-09-07T14:05:32.115Z,54.96
2018-09-07T14:07:24.996Z,55.16
2018-09-07T14:08:24.975Z,55.26
2018-09-07T14:10:17.859Z,55.16
2018-09-07T14:11:17.846Z,55.16
2018-09-07T14:13:10.726Z,55.06
2018-09-07T14:14:10.706Z,55.06
2018-09-07T14:16:03.652Z,55.26
2018-09-07T14:17:03.578Z,55.06
2018-09-07T14:18:56.466Z,55.04
2018-09-07T14:19:56.441Z,55.04
2018-09-07T14:21:49.372Z,54.74
2018-09-07T14:22:49.312Z,55.16
2018-09-07T14:24:42.222Z,55.04
2018-09-07T14:25:42.201Z,55.06
2018-09-07T14:27:35.088Z,55.13
2018-09-07T14:28:35.073Z,55.04
2018-09-07T14:30:28.947Z,55.16
2018-09-07T14:31:28.924Z,54.94
2018-09-07T14:33:21.818Z,55.04
2018-09-07T14:34:21.793Z,55.04
2018-09-07T14:36:14.680Z,54.94
2018-09-07T14:37:14.660Z,54.94
2018-09-07T14:39:07.546Z,54.84
2018-09-07T14:40:07.526Z,54.84
2018-09-07T14:42:01.422Z,55.22
2018-09-07T14:43:01.411Z,54.94
2018-09-07T14:44:54.294Z,55.32
2018-09-07T14:45:54.273Z,55.13
2018-09-07T14:47:47.158Z,55.13
2018-09-07T14:48:47.189Z,55.13
2018-09-07T14:50:40.018Z,55.22
2018-09-07T14:51:40.007Z,55.32
2018-09-07T14:53:32.890Z,55.32
2018-09-07T14:54:32.916Z,55.13
2018-09-07T14:56:26.258Z,55.22
2018-09-07T14:57:26.240Z,55.42
2018-09-07T14:59:19.130Z,55.22
2018-09-07T15:00:19.138Z,55.52
2018-09-07T15:02:11.995Z,55.22
2018-09-07T15:03:11.985Z,55.22
2018-09-07T15:05:05.373Z,55.32
2018-09-07T15:06:05.368Z,55.22
2018-09-07T15:07:58.228Z,55.22
2018-09-07T15:08:58.214Z,55.32
2018-09-07T15:10:51.082Z,55.42
2018-09-07T15:11:51.072Z,55.62
2018-09-07T15:13:43.961Z,55.22
2018-09-07T15:14:43.941Z,55.13
2018-09-07T15:16:36.820Z,55.22
2018-09-07T15:17:36.806Z,55.04
2018-09-07T15:19:29.699Z,55.13
2018-09-07T15:20:29.684Z,55.52
2018-09-07T15:22:22.555Z,55.52
2018-09-07T15:23:22.543Z,55.42
2018-09-07T15:25:16.416Z,55.22
2018-09-07T15:26:16.416Z,55.62
2018-09-07T15:28:09.282Z,55.42
2018-09-07T15:29:09.264Z,55.42
2018-09-07T15:31:02.137Z,55.42
2018-09-07T15:32:02.127Z,55.62
2018-09-07T15:33:55.023Z,55.62
2018-09-07T15:34:54.997Z,55.71
2018-09-07T15:36:47.878Z,55.32
2018-09-07T15:37:47.869Z,55.13
2018-09-07T15:39:40.778Z,55.62
2018-09-07T15:40:40.725Z,55.52
2018-09-07T15:42:33.630Z,55.52
2018-09-07T15:43:33.597Z,55.62
2018-09-07T15:45:26.484Z,55.22
2018-09-07T15:46:26.465Z,55.52
2018-09-07T15:48:19.346Z,55.22
2018-09-07T15:49:19.325Z,55.52
2018-09-07T15:51:12.213Z,55.62
2018-09-07T15:52:12.199Z,55.52
2018-09-07T15:54:05.084Z,55.62
2018-09-07T15:55:05.063Z,55.62
2018-09-07T15:56:57.942Z,55.13
2018-09-07T15:57:57.931Z,55.71
2018-09-07T15:59:50.814Z,55.42
2018-09-07T16:00:50.792Z,55.42
2018-09-07T16:02:43.676Z,55.52
2018-09-07T16:03:43.661Z,55.71
2018-09-07T16:05:36.562Z,55.52
2018-09-07T16:06:36.552Z,55.42
2018-09-07T16:08:29.413Z,55.62
2018-09-07T16:09:29.395Z,55.62
2018-09-07T16:11:22.285Z,55.52
2018-09-07T16:12:22.263Z,55.62
2018-09-07T16:14:15.153Z,55.42
2018-09-07T16:15:15.136Z,55.81
2018-09-07T16:17:08.002Z,55.81
2018-09-07T16:18:07.994Z,55.49
2018-09-07T16:20:00.883Z,55.49
2018-09-07T16:21:00.920Z,55.68
2018-09-07T16:22:53.737Z,55.49
2018-09-07T16:23:53.726Z,55.58
2018-09-07T16:25:46.621Z,55.40
2018-09-07T16:26:46.598Z,55.42
2018-09-07T16:28:39.490Z,55.40
2018-09-07T16:29:39.472Z,56.07
2018-09-07T16:31:32.432Z,56.10
2018-09-07T16:32:32.353Z,56.20
2018-09-07T16:34:25.260Z,55.78
2018-09-07T16:35:25.218Z,55.90
2018-09-07T16:37:18.102Z,55.90
2018-09-07T16:38:18.098Z,55.88
2018-09-07T16:40:10.977Z,55.98
2018-09-07T16:41:10.957Z,55.88
2018-09-07T16:43:03.853Z,55.78
2018-09-07T16:44:03.826Z,56.07
2018-09-07T16:45:56.717Z,55.88
2018-09-07T16:46:56.701Z,55.58
2018-09-07T16:48:49.603Z,55.68
2018-09-07T16:49:49.580Z,55.68
2018-09-07T16:51:42.455Z,55.68
2018-09-07T16:52:42.445Z,55.58
2018-09-07T16:54:35.377Z,55.58
2018-09-07T16:55:35.310Z,55.49
2018-09-07T16:57:28.192Z,55.58
2018-09-07T16:58:28.182Z,55.78
2018-09-07T17:00:21.065Z,55.78
2018-09-07T17:01:21.045Z,55.78
2018-09-07T17:03:14.958Z,55.78
2018-09-07T17:04:14.933Z,55.78
2018-09-07T17:06:07.789Z,55.88
2018-09-07T17:07:07.769Z,55.88
2018-09-07T17:09:00.656Z,55.88
2018-09-07T17:10:00.633Z,55.88
2018-09-07T17:11:53.521Z,56.07
2018-09-07T17:12:53.510Z,55.88
2018-09-07T17:14:46.396Z,56.16
2018-09-07T17:15:46.372Z,55.88
2018-09-07T17:17:39.255Z,56.07
2018-09-07T17:18:39.256Z,55.88
2018-09-07T17:20:32.131Z,55.88
2018-09-07T17:21:32.109Z,55.88
2018-09-07T17:23:24.991Z,55.88
2018-09-07T17:24:24.980Z,55.88
2018-09-07T17:26:17.873Z,55.98
2018-09-07T17:27:17.853Z,55.68
2018-09-07T17:29:10.729Z,55.68
2018-09-07T17:30:10.723Z,55.68
2018-09-07T17:32:03.632Z,55.88
2018-09-07T17:33:03.582Z,56.36
2018-09-07T17:34:56.477Z,56.36
2018-09-07T17:35:56.450Z,56.46
2018-09-07T17:37:49.324Z,56.07
2018-09-07T17:38:49.317Z,56.16
2018-09-07T17:40:42.207Z,56.07
2018-09-07T17:41:42.185Z,56.16
2018-09-07T17:43:35.557Z,56.07
2018-09-07T17:44:35.555Z,56.46
2018-09-07T17:46:28.934Z,56.46
2018-09-07T17:47:28.912Z,55.98
2018-09-07T17:49:21.796Z,56.46
2018-09-07T17:50:21.824Z,56.46
2018-09-07T17:52:14.673Z,56.46
2018-09-07T17:53:14.650Z,56.36
2018-09-07T17:55:09.032Z,56.26
2018-09-07T17:56:09.006Z,56.36
2018-09-07T17:58:01.879Z,56.36
2018-09-07T17:59:01.875Z,56.46
2018-09-07T18:00:54.756Z,56.56
2018-09-07T18:01:54.737Z,56.46
2018-09-07T18:03:48.604Z,56.26
2018-09-07T18:04:48.602Z,56.36
2018-09-07T18:06:41.479Z,56.46
2018-09-07T18:07:41.459Z,56.26
2018-09-07T18:09:34.354Z,56.26
2018-09-07T18:10:34.340Z,56.36
2018-09-07T18:12:27.207Z,56.46
2018-09-07T18:13:27.196Z,56.56
2018-09-07T18:15:20.075Z,56.46
2018-09-07T18:16:20.166Z,56.56
2018-09-07T18:18:12.936Z,56.56
2018-09-07T18:19:12.920Z,56.46
2018-09-07T18:21:05.807Z,56.36
2018-09-07T18:22:05.789Z,56.16
2018-09-07T18:23:58.685Z,56.16
2018-09-07T18:24:58.658Z,56.16
2018-09-07T18:26:51.543Z,56.16
2018-09-07T18:27:51.519Z,56.43
2018-09-07T18:29:44.448Z,56.04
2018-09-07T18:30:44.394Z,56.56
2018-09-07T18:32:37.290Z,56.56
2018-09-07T18:33:37.267Z,56.62